createdAt,value
2022-12-31T08:40:14.581Z,808.00
2022-12-31T08:41:14.532Z,860.00
2022-12-31T08:42:14.520Z,940.00
2022-12-31T08:43:14.509Z,908.00
2022-12-31T08:44:14.492Z,636.00
2022-12-31T08:45:14.490Z,684.00
2022-12-31T08:46:14.560Z,768.00
2022-12-31T08:47:14.454Z,860.00
2022-12-31T08:48:14.437Z,752.00
2022-12-31T08:49:14.430Z,784.00
2022-12-31T08:50:14.428Z,860.00
2022-12-31T08:51:14.451Z,728.00
2022-12-31T08:52:14.392Z,688.00
2022-12-31T08:53:14.394Z,664.00
2022-12-31T08:54:14.364Z,528.00
2022-12-31T08:55:14.347Z,472.00
2022-12-31T08:56:14.365Z,452.00
2022-12-31T08:57:14.357Z,476.00
2022-12-31T08:58:14.317Z,728.00
2022-12-31T08:59:14.316Z,948.00
2022-12-31T09:00:14.296Z,1016.00
2022-12-31T09:01:14.472Z,1108.00
2022-12-31T09:02:14.340Z,616.00
2022-12-31T09:03:14.305Z,540.00
2022-12-31T09:04:14.312Z,952.00
2022-12-31T09:05:14.258Z,752.00
2022-12-31T09:06:14.234Z,708.00
2022-12-31T09:07:14.231Z,616.00
2022-12-31T09:08:14.203Z,624.00
2022-12-31T09:09:14.211Z,676.00
2022-12-31T09:10:14.185Z,740.00
2022-12-31T09:11:19.205Z,596.00
2022-12-31T09:12:15.192Z,684.00
2022-12-31T09:13:14.166Z,752.00
2022-12-31T09:14:14.177Z,728.00
2022-12-31T09:15:14.137Z,948.00
2022-12-31T09:16:14.184Z,972.00
2022-12-31T09:17:14.113Z,804.00
2022-12-31T09:18:14.106Z,672.00
2022-12-31T09:19:14.106Z,564.00
2022-12-31T09:20:14.102Z,680.00
2022-12-31T09:21:14.075Z,1124.00
2022-12-31T09:22:14.054Z,592.00
2022-12-31T09:23:14.061Z,456.00
2022-12-31T09:24:14.053Z,592.00
2022-12-31T09:25:14.011Z,668.00
2022-12-31T09:26:13.996Z,716.00
2022-12-31T09:27:13.999Z,1004.00
2022-12-31T09:28:14.007Z,912.00
2022-12-31T09:29:13.971Z,800.00
2022-12-31T09:30:13.984Z,748.00
2022-12-31T09:31:14.156Z,996.00
2022-12-31T09:32:13.933Z,772.00
2022-12-31T09:33:13.915Z,928.00
2022-12-31T09:34:13.924Z,972.00
2022-12-31T09:35:13.909Z,1108.00
2022-12-31T09:36:13.888Z,1344.00
2022-12-31T09:37:13.882Z,1440.00
2022-12-31T09:38:13.880Z,976.00
2022-12-31T09:39:13.849Z,1180.00
2022-12-31T09:40:13.852Z,1184.00
2022-12-31T09:41:13.872Z,880.00
2022-12-31T09:42:13.828Z,620.00
2022-12-31T09:43:13.815Z,652.00
2022-12-31T09:44:13.843Z,1092.00
2022-12-31T09:45:13.785Z,960.00
2022-12-31T09:46:13.827Z,816.00
2022-12-31T09:47:13.775Z,1164.00
2022-12-31T09:48:13.760Z,1024.00
2022-12-31T09:49:13.747Z,1032.00
2022-12-31T09:50:13.726Z,836.00
2022-12-31T09:51:13.717Z,608.00
2022-12-31T09:52:13.703Z,788.00
2022-12-31T09:53:13.704Z,816.00
2022-12-31T09:54:13.678Z,756.00
2022-12-31T09:55:13.666Z,780.00
2022-12-31T09:56:13.673Z,836.00
2022-12-31T09:57:31.852Z,880.00
2022-12-31T09:58:14.666Z,852.00
2022-12-31T09:59:13.628Z,848.00
2022-12-31T10:00:13.646Z,948.00
2022-12-31T10:01:13.776Z,1036.00
2022-12-31T10:02:13.930Z,1028.00
2022-12-31T10:03:13.650Z,812.00
2022-12-31T10:04:13.575Z,1196.00
2022-12-31T10:05:13.561Z,1040.00
2022-12-31T10:06:13.567Z,800.00
2022-12-31T10:07:13.534Z,916.00
2022-12-31T10:08:13.585Z,1100.00
2022-12-31T10:09:13.518Z,1096.00
2022-12-31T10:10:13.520Z,768.00
2022-12-31T10:11:13.505Z,880.00
2022-12-31T10:12:13.475Z,1000.00
2022-12-31T10:13:13.478Z,1016.00
2022-12-31T10:14:13.470Z,972.00
2022-12-31T10:15:13.447Z,808.00
2022-12-31T10:16:13.471Z,1044.00
2022-12-31T10:17:14.554Z,968.00
2022-12-31T10:18:13.423Z,844.00
2022-12-31T10:19:13.415Z,964.00
2022-12-31T10:20:13.405Z,1056.00
2022-12-31T10:21:13.419Z,992.00
2022-12-31T10:22:13.365Z,964.00
2022-12-31T10:23:13.367Z,900.00
2022-12-31T10:24:13.362Z,776.00
2022-12-31T10:25:13.333Z,1148.00
2022-12-31T10:26:13.375Z,1300.00
2022-12-31T10:27:13.314Z,1024.00
2022-12-31T10:28:13.308Z,1344.00
2022-12-31T10:29:13.302Z,1612.00
2022-12-31T10:30:13.304Z,1696.00
2022-12-31T10:31:13.316Z,1496.00
2022-12-31T10:32:13.283Z,1440.00
2022-12-31T10:33:13.258Z,1440.00
2022-12-31T10:34:13.238Z,1492.00
2022-12-31T10:35:13.230Z,1072.00
2022-12-31T10:36:13.200Z,928.00
2022-12-31T10:37:13.207Z,1076.00
2022-12-31T10:38:14.183Z,976.00
2022-12-31T10:39:16.460Z,880.00
2022-12-31T10:40:14.173Z,752.00
2022-12-31T10:41:13.191Z,768.00
2022-12-31T10:42:13.158Z,908.00
2022-12-31T10:43:13.141Z,684.00
2022-12-31T10:44:13.115Z,640.00
2022-12-31T10:45:13.121Z,456.00
2022-12-31T10:46:16.342Z,348.00
2022-12-31T10:47:14.149Z,328.00
2022-12-31T10:48:13.113Z,320.00
2022-12-31T10:49:13.075Z,316.00
2022-12-31T10:50:13.046Z,340.00
2022-12-31T10:51:13.045Z,516.00
2022-12-31T10:52:13.034Z,388.00
2022-12-31T10:53:13.032Z,300.00
2022-12-31T10:54:13.000Z,328.00
2022-12-31T10:55:12.992Z,348.00
2022-12-31T10:56:12.975Z,324.00
2022-12-31T10:57:12.985Z,360.00
2022-12-31T10:58:16.084Z,408.00
2022-12-31T10:59:12.960Z,508.00
2022-12-31T11:00:12.936Z,676.00
2022-12-31T11:01:13.101Z,996.00
2022-12-31T11:02:13.117Z,812.00
2022-12-31T11:03:12.970Z,632.00
2022-12-31T11:04:12.916Z,496.00
2022-12-31T11:05:12.878Z,756.00
2022-12-31T11:06:12.878Z,908.00
2022-12-31T11:07:12.859Z,932.00
2022-12-31T11:08:12.877Z,708.00
2022-12-31T11:09:12.839Z,792.00
2022-12-31T11:10:12.827Z,612.00
2022-12-31T11:11:12.814Z,708.00
2022-12-31T11:12:13.793Z,568.00
2022-12-31T11:13:12.789Z,656.00
2022-12-31T11:14:12.800Z,608.00
2022-12-31T11:15:12.775Z,780.00
2022-12-31T11:16:12.784Z,736.00
2022-12-31T11:17:12.742Z,476.00
2022-12-31T11:18:12.730Z,520.00
2022-12-31T11:19:12.761Z,684.00
2022-12-31T11:20:12.741Z,832.00
2022-12-31T11:21:12.707Z,1272.00
2022-12-31T11:22:12.698Z,1572.00
2022-12-31T11:23:12.692Z,1464.00
2022-12-31T11:24:12.685Z,1288.00
2022-12-31T11:25:12.663Z,1132.00
2022-12-31T11:26:12.649Z,1448.00
2022-12-31T11:27:13.547Z,1396.00
2022-12-31T11:28:12.638Z,1120.00
2022-12-31T11:29:12.617Z,1072.00
2022-12-31T11:30:12.652Z,1240.00
2022-12-31T11:31:12.662Z,1528.00
2022-12-31T11:32:12.570Z,1784.00
2022-12-31T11:33:12.584Z,1896.00
2022-12-31T11:34:12.578Z,2192.00
2022-12-31T11:35:12.578Z,2252.00
2022-12-31T11:36:12.583Z,1832.00
2022-12-31T11:37:12.514Z,1492.00
2022-12-31T11:38:12.506Z,1512.00
2022-12-31T11:39:12.495Z,1284.00
2022-12-31T11:40:12.495Z,1168.00
2022-12-31T11:41:12.470Z,1356.00
2022-12-31T11:42:12.483Z,1120.00
2022-12-31T11:43:12.449Z,916.00
2022-12-31T11:44:12.431Z,1228.00
2022-12-31T11:45:12.441Z,1248.00
2022-12-31T11:46:12.481Z,1024.00
2022-12-31T11:47:12.435Z,824.00
2022-12-31T11:49:13.382Z,568.00
2022-12-31T11:50:12.378Z,624.00
2022-12-31T11:51:12.373Z,728.00
2022-12-31T11:52:15.067Z,748.00
2022-12-31T11:53:12.335Z,752.00
2022-12-31T11:54:12.321Z,772.00
2022-12-31T11:55:12.315Z,724.00
2022-12-31T11:56:12.309Z,648.00
2022-12-31T11:57:12.314Z,568.00
2022-12-31T11:58:12.289Z,624.00
2022-12-31T11:59:19.024Z,728.00
2022-12-31T12:00:13.302Z,864.00
2022-12-31T12:01:12.264Z,1128.00
2022-12-31T12:02:12.244Z,1232.00
2022-12-31T12:03:12.330Z,1308.00
2022-12-31T12:04:12.254Z,1344.00
2022-12-31T12:05:12.227Z,1220.00
2022-12-31T12:06:12.202Z,1060.00
2022-12-31T12:07:16.690Z,980.00
2022-12-31T12:08:43.071Z,996.00
2022-12-31T12:10:29.266Z,1200.00
2022-12-31T12:11:26.434Z,1148.00
2022-12-31T12:12:25.419Z,1012.00
2022-12-31T12:13:25.449Z,968.00
2022-12-31T12:14:25.392Z,968.00
2022-12-31T12:15:25.381Z,992.00
2022-12-31T12:16:25.427Z,1124.00
2022-12-31T12:17:25.363Z,1096.00
2022-12-31T12:18:25.335Z,1076.00
2022-12-31T12:19:25.357Z,1132.00
2022-12-31T12:20:25.320Z,1084.00
2022-12-31T12:21:25.305Z,1064.00
2022-12-31T12:22:25.338Z,1072.00
2022-12-31T12:23:26.304Z,1108.00
2022-12-31T12:24:25.277Z,1344.00
2022-12-31T12:25:25.293Z,1728.00
2022-12-31T12:26:25.259Z,2000.00
2022-12-31T12:27:25.258Z,1820.00
2022-12-31T12:28:25.220Z,1884.00
2022-12-31T12:29:25.231Z,2036.00
2022-12-31T12:30:25.220Z,2092.00
2022-12-31T12:31:25.212Z,2388.00
2022-12-31T12:32:25.186Z,2944.00
2022-12-31T12:33:25.173Z,3744.00
2022-12-31T12:34:25.159Z,3940.00
2022-12-31T12:35:25.166Z,3508.00
2022-12-31T12:36:25.144Z,2652.00
2022-12-31T12:37:25.156Z,2216.00
2022-12-31T12:38:25.158Z,2312.00
2022-12-31T12:39:25.131Z,2304.00
2022-12-31T12:40:33.095Z,2232.00
2022-12-31T12:41:26.099Z,1948.00
2022-12-31T12:42:25.086Z,1848.00
2022-12-31T12:43:25.056Z,1728.00
2022-12-31T12:44:25.042Z,1380.00
2022-12-31T12:45:25.054Z,1148.00
2022-12-31T12:46:25.036Z,1040.00
2022-12-31T12:47:25.023Z,1096.00
2022-12-31T12:48:24.995Z,1588.00
2022-12-31T12:49:25.986Z,1960.00
2022-12-31T12:50:24.977Z,2420.00
2022-12-31T12:51:24.991Z,2040.00
2022-12-31T12:52:24.967Z,1424.00
2022-12-31T12:53:24.942Z,980.00
2022-12-31T12:54:24.946Z,1124.00
2022-12-31T12:55:24.918Z,1188.00
2022-12-31T12:56:24.919Z,1524.00
2022-12-31T12:57:24.918Z,1276.00
2022-12-31T12:58:24.881Z,1740.00
2022-12-31T12:59:24.888Z,1876.00
2022-12-31T13:00:24.861Z,1984.00
2022-12-31T13:01:25.044Z,2076.00
2022-12-31T13:02:24.981Z,2040.00
2022-12-31T13:03:24.830Z,1964.00
2022-12-31T13:04:40.200Z,1068.00
2022-12-31T13:05:28.220Z,944.00
2022-12-31T13:06:24.812Z,1008.00
2022-12-31T13:07:24.786Z,836.00
2022-12-31T13:08:24.771Z,808.00
2022-12-31T13:09:24.778Z,728.00
2022-12-31T13:10:24.784Z,728.00
2022-12-31T13:11:24.758Z,888.00
2022-12-31T13:12:24.743Z,692.00
2022-12-31T13:13:25.702Z,684.00
2022-12-31T13:14:24.731Z,952.00
2022-12-31T13:15:24.714Z,1200.00
2022-12-31T13:16:24.698Z,1356.00
2022-12-31T13:17:24.714Z,1164.00
2022-12-31T13:18:24.671Z,1316.00
2022-12-31T13:19:24.667Z,1444.00
2022-12-31T13:20:24.649Z,1264.00
2022-12-31T13:21:24.643Z,1108.00
2022-12-31T13:22:24.611Z,796.00
2022-12-31T13:23:24.617Z,484.00
2022-12-31T13:24:24.607Z,376.00
2022-12-31T13:25:24.592Z,408.00
2022-12-31T13:26:24.600Z,424.00
2022-12-31T13:27:24.683Z,408.00
2022-12-31T13:28:38.287Z,408.00
2022-12-31T13:29:24.539Z,640.00
2022-12-31T13:30:24.534Z,884.00
2022-12-31T13:31:24.574Z,816.00
2022-12-31T13:32:24.511Z,1052.00
2022-12-31T13:33:24.510Z,1164.00
2022-12-31T13:34:24.505Z,1396.00
2022-12-31T13:35:24.483Z,1436.00
2022-12-31T13:36:24.454Z,1572.00
2022-12-31T13:37:24.458Z,1696.00
2022-12-31T13:38:55.186Z,1712.00
2022-12-31T13:39:24.435Z,1144.00
2022-12-31T13:40:24.427Z,1012.00
2022-12-31T13:41:24.417Z,952.00
2022-12-31T13:42:24.424Z,696.00
2022-12-31T13:43:24.375Z,732.00
2022-12-31T13:44:24.397Z,800.00
2022-12-31T13:45:24.480Z,940.00
2022-12-31T13:46:24.349Z,1044.00
2022-12-31T13:47:24.341Z,1456.00
2022-12-31T13:52:04.172Z,1772.00
2022-12-31T13:53:04.115Z,1816.00
2022-12-31T13:54:04.108Z,1248.00
2022-12-31T13:55:04.122Z,1232.00
2022-12-31T13:56:04.102Z,1420.00
2022-12-31T13:57:04.085Z,1272.00
2022-12-31T13:58:04.087Z,1060.00
2022-12-31T13:59:04.062Z,1040.00
2022-12-31T14:00:04.072Z,1024.00
2022-12-31T14:01:04.143Z,744.00
2022-12-31T14:02:04.170Z,1024.00
2022-12-31T14:03:04.100Z,1048.00
2022-12-31T14:04:04.001Z,1000.00
2022-12-31T14:05:03.985Z,1012.00
2022-12-31T14:06:04.001Z,1468.00
2022-12-31T14:07:03.960Z,1784.00
2022-12-31T14:08:03.964Z,1548.00
2022-12-31T14:09:03.953Z,1372.00
2022-12-31T14:10:03.928Z,1264.00
2022-12-31T14:11:03.941Z,1216.00
2022-12-31T14:12:03.921Z,1276.00
2022-12-31T14:13:03.891Z,1256.00
2022-12-31T14:14:03.904Z,960.00
2022-12-31T14:15:03.879Z,716.00
2022-12-31T14:16:03.954Z,680.00
2022-12-31T14:17:03.862Z,636.00
2022-12-31T14:18:03.879Z,560.00
2022-12-31T14:19:03.823Z,512.00
2022-12-31T14:20:03.830Z,480.00
2022-12-31T14:21:03.815Z,488.00
2022-12-31T14:22:03.824Z,488.00
2022-12-31T14:23:03.806Z,484.00
2022-12-31T14:24:03.781Z,524.00
2022-12-31T14:25:03.761Z,512.00
2022-12-31T14:26:03.757Z,456.00
2022-12-31T14:27:03.741Z,424.00
2022-12-31T14:28:03.758Z,396.00
2022-12-31T14:29:03.719Z,400.00
2022-12-31T14:30:03.720Z,408.00
2022-12-31T14:31:03.694Z,412.00
2022-12-31T14:32:03.744Z,416.00
2022-12-31T14:33:03.696Z,420.00
2022-12-31T14:34:03.669Z,432.00
2022-12-31T14:35:03.665Z,436.00
2022-12-31T14:36:09.982Z,460.00
2022-12-31T14:37:04.641Z,476.00
2022-12-31T14:38:03.630Z,476.00
2022-12-31T14:39:03.618Z,476.00
2022-12-31T14:40:03.714Z,460.00
2022-12-31T14:41:03.578Z,436.00
2022-12-31T14:42:03.568Z,448.00
2022-12-31T14:43:03.579Z,464.00
2022-12-31T14:44:03.559Z,464.00
2022-12-31T14:45:03.548Z,468.00
2022-12-31T14:46:03.631Z,472.00
2022-12-31T14:47:03.524Z,468.00
2022-12-31T14:48:03.511Z,464.00
2022-12-31T14:49:03.540Z,452.00
2022-12-31T14:50:03.638Z,448.00
2022-12-31T14:51:03.483Z,432.00
2022-12-31T14:52:03.468Z,404.00
2022-12-31T14:53:03.495Z,380.00
2022-12-31T14:54:03.443Z,360.00
2022-12-31T14:55:03.453Z,332.00
2022-12-31T14:56:03.422Z,312.00
2022-12-31T14:57:03.398Z,304.00
2022-12-31T14:58:32.083Z,292.00
2022-12-31T14:59:04.398Z,268.00
2022-12-31T15:00:03.482Z,244.00
2022-12-31T15:01:03.554Z,236.00
2022-12-31T15:02:03.728Z,216.00
2022-12-31T15:03:03.414Z,196.00
2022-12-31T15:04:03.333Z,180.00
2022-12-31T15:05:03.346Z,160.00
2022-12-31T15:06:03.310Z,136.00
2022-12-31T15:07:03.306Z,112.00
2022-12-31T15:08:04.299Z,108.00
2022-12-31T15:09:07.935Z,108.00
2022-12-31T15:10:04.296Z,112.00
2022-12-31T15:11:03.256Z,120.00
2022-12-31T15:12:03.229Z,112.00
2022-12-31T15:13:03.234Z,100.00
2022-12-31T15:14:03.240Z,84.00
2022-12-31T15:15:03.214Z,76.00
2022-12-31T15:16:03.211Z,72.00
2022-12-31T15:17:03.258Z,68.00
2022-12-31T15:18:03.199Z,64.00
2022-12-31T15:19:03.163Z,60.00
2022-12-31T15:20:03.141Z,64.00
2022-12-31T15:21:03.166Z,64.00
2022-12-31T15:22:03.114Z,56.00
2022-12-31T15:23:03.124Z,52.00
2022-12-31T15:24:03.091Z,48.00
2022-12-31T15:25:03.101Z,44.00
2022-12-31T15:26:03.120Z,36.00
2022-12-31T15:27:03.098Z,36.00
2022-12-31T15:28:03.066Z,36.00
2022-12-31T15:29:04.056Z,32.00
2022-12-31T15:30:03.024Z,28.00
2022-12-31T15:31:03.047Z,28.00
2022-12-31T15:32:03.025Z,28.00
2022-12-31T15:33:02.995Z,28.00
2022-12-31T15:34:03.025Z,32.00
2022-12-31T15:35:03.013Z,36.00
2022-12-31T15:36:02.957Z,32.00
2022-12-31T15:37:02.965Z,32.00
2022-12-31T15:38:02.953Z,32.00
2022-12-31T15:39:03.941Z,32.00
2022-12-31T15:40:02.932Z,32.00
2022-12-31T15:41:02.923Z,24.00
2022-12-31T15:42:36.785Z,24.00
2022-12-31T15:43:03.937Z,20.00
2022-12-31T15:44:02.879Z,20.00
2022-12-31T15:45:02.878Z,16.00
2022-12-31T15:46:02.905Z,16.00
2022-12-31T15:47:02.840Z,16.00
2022-12-31T15:48:02.852Z,12.00
2022-12-31T15:49:05.967Z,8.00
2022-12-31T15:50:03.841Z,8.00
2022-12-31T15:51:02.829Z,8.00
2022-12-31T15:52:03.778Z,8.00
2022-12-31T15:53:02.803Z,8.00
2022-12-31T15:54:02.778Z,4.00
